Time;durP1;ratioP1;P1;durP2;ratioP2;P2;SDS_P1;SDS_P2;PMS_P1;PMS_P2;Temp;Humidity;BMP_temperature;BMP_pressure;BME280_temperature;BME280_humidity;BME280_pressure;Samples;Min_cycle;Max_cycle;Signal;HPM_P1;HPM_P2
2022/10/04 00:00:35;;;;;;;5.70;3.60;;;9.40;99.90;;;;;;5035850;28;20021;-72
2022/10/04 00:03:17;;;;;;;10.30;3.28;;;9.20;99.90;;;;;;5036426;28;20025;-72
2022/10/04 00:05:49;;;;;;;6.18;3.22;;;8.90;99.90;;;;;;5035673;28;20058;-72
2022/10/04 00:08:46;;;;;;;5.10;3.10;;;8.80;99.90;;;;;;5035632;28;20021;-72
2022/10/04 00:11:36;;;;;;;12.95;3.63;;;8.80;99.90;;;;;;5053623;28;20033;-72
2022/10/04 00:14:30;;;;;;;10.05;3.97;;;8.90;99.90;;;;;;5040900;28;20129;-72
2022/10/04 00:16:58;;;;;;;6.65;3.50;;;9.00;99.90;;;;;;5040241;28;20041;-72
2022/10/04 00:19:37;;;;;;;8.20;3.63;;;9.00;99.90;;;;;;5035405;28;20032;-72
2022/10/04 00:22:07;;;;;;;7.80;3.90;;;9.10;99.90;;;;;;5053504;28;20032;-72
2022/10/04 00:24:36;;;;;;;6.60;4.05;;;9.20;99.90;;;;;;5035248;28;20025;-72
2022/10/04 00:27:24;;;;;;;4.97;3.47;;;9.20;99.90;;;;;;5052971;28;20488;-72
2022/10/04 00:30:02;;;;;;;4.32;3.03;;;9.00;99.90;;;;;;5053173;28;20154;-72
2022/10/04 00:32:27;;;;;;;4.45;3.15;;;8.90;99.90;;;;;;5053454;28;20033;-72
2022/10/04 00:34:54;;;;;;;6.50;3.35;;;8.90;99.90;;;;;;5053119;28;20028;-72
2022/10/04 00:37:21;;;;;;;8.32;3.53;;;8.90;99.90;;;;;;5035121;28;20028;-72
2022/10/04 00:39:57;;;;;;;6.82;3.75;;;9.00;99.90;;;;;;5053653;28;20021;-72
2022/10/04 00:42:45;;;;;;;8.48;4.07;;;9.00;99.90;;;;;;5052999;28;20025;-72
2022/10/04 00:45:43;;;;;;;13.93;4.07;;;9.10;99.90;;;;;;5036045;28;20129;-72
2022/10/04 00:48:33;;;;;;;12.20;3.78;;;9.10;99.90;;;;;;5050686;28;20040;-72
2022/10/04 00:51:14;;;;;;;11.68;3.90;;;9.20;99.90;;;;;;5035158;28;20472;-72
2022/10/04 00:53:56;;;;;;;10.50;3.47;;;9.10;99.90;;;;;;5035331;28;20047;-72
2022/10/04 00:56:51;;;;;;;7.13;3.40;;;9.10;99.90;;;;;;5035849;28;20032;-72
2022/10/04 00:59:33;;;;;;;5.07;3.20;;;9.00;99.90;;;;;;5035343;28;20045;-72
2022/10/04 01:02:12;;;;;;;7.60;3.60;;;9.10;99.90;;;;;;5034943;28;20025;-72
2022/10/04 01:04:47;;;;;;;7.20;3.47;;;9.20;99.90;;;;;;5035045;28;20029;-72
2022/10/04 01:07:16;;;;;;;7.13;3.65;;;9.10;99.90;;;;;;5052689;28;20092;-72
2022/10/04 01:09:54;;;;;;;11.00;4.60;;;9.10;99.90;;;;;;5034916;28;20017;-72
2022/10/04 01:12:31;;;;;;;10.63;5.10;;;9.10;99.90;;;;;;5052720;28;20388;-72
2022/10/04 01:15:22;;;;;;;17.33;5.70;;;9.10;99.90;;;;;;5039274;28;20029;-72
2022/10/04 01:18:08;;;;;;;9.70;4.03;;;9.10;99.90;;;;;;5056552;28;20027;-72
2022/10/04 01:20:47;;;;;;;17.27;5.20;;;9.10;99.90;;;;;;5056383;28;20112;-72
2022/10/04 01:23:31;;;;;;;14.75;4.80;;;9.00;99.90;;;;;;5056749;28;20025;-72
2022/10/04 01:25:56;;;;;;;14.15;4.95;;;9.00;99.90;;;;;;5056457;28;20385;-72
2022/10/04 01:28:22;;;;;;;19.65;6.90;;;8.90;99.90;;;;;;5039028;28;20033;-72
2022/10/04 01:30:48;;;;;;;22.80;5.25;;;8.90;99.90;;;;;;5039682;28;20025;-72
2022/10/04 01:33:13;;;;;;;29.55;5.72;;;8.80;99.90;;;;;;5038445;28;20033;-72
2022/10/04 01:35:39;;;;;;;30.08;5.18;;;8.60;99.90;;;;;;5056778;28;20059;-72
2022/10/04 01:38:06;;;;;;;19.95;6.78;;;8.60;99.90;;;;;;5038265;28;20028;-72
2022/10/04 01:40:33;;;;;;;24.23;6.13;;;8.70;99.90;;;;;;5038173;28;20021;-72
2022/10/04 01:43:05;;;;;;;32.97;6.45;;;8.70;99.90;;;;;;5038544;28;20040;-73
2022/10/04 01:45:46;;;;;;;33.42;7.72;;;8.70;99.90;;;;;;5056401;28;20029;-73
2022/10/04 01:48:16;;;;;;;21.38;6.55;;;8.80;99.90;;;;;;5056378;28;20112;-73
2022/10/04 01:50:50;;;;;;;25.02;6.80;;;9.00;99.90;;;;;;5055937;28;20029;-73
2022/10/04 01:53:25;;;;;;;13.90;6.13;;;9.10;99.90;;;;;;5038215;28;20036;-73
2022/10/04 01:56:02;;;;;;;20.02;7.82;;;9.20;99.90;;;;;;5037950;28;20032;-73
2022/10/04 01:58:32;;;;;;;16.80;6.32;;;9.30;99.90;;;;;;5056114;28;20032;-73
2022/10/04 02:01:09;;;;;;;18.45;6.82;;;9.30;99.90;;;;;;5037847;28;20048;-73
2022/10/04 02:03:40;;;;;;;15.82;5.70;;;9.40;99.90;;;;;;5037796;28;20021;-73
2022/10/04 02:06:09;;;;;;;21.63;6.53;;;9.50;99.90;;;;;;5038669;28;20020;-73
2022/10/04 02:08:39;;;;;;;15.88;5.15;;;9.30;99.90;;;;;;5038049;28;20025;-73
2022/10/04 02:11:06;;;;;;;21.35;5.28;;;9.20;99.90;;;;;;5055950;28;20104;-73
2022/10/04 02:13:39;;;;;;;13.88;5.95;;;9.30;99.90;;;;;;5038475;28;20484;-73
2022/10/04 02:16:10;;;;;;;13.75;5.18;;;9.40;99.90;;;;;;5055397;28;20097;-73
2022/10/04 02:18:38;;;;;;;11.80;5.77;;;9.50;99.90;;;;;;5037592;28;20048;-72
2022/10/04 02:21:05;;;;;;;11.60;4.97;;;9.50;99.90;;;;;;5037468;28;20476;-73
2022/10/04 02:23:32;;;;;;;12.00;5.32;;;9.60;99.90;;;;;;5037890;28;20376;-73
2022/10/04 02:25:58;;;;;;;18.35;4.65;;;9.50;99.90;;;;;;5054905;28;20178;-73
2022/10/04 02:28:24;;;;;;;11.93;4.82;;;9.50;99.90;;;;;;5055812;28;20445;-73
2022/10/04 02:33:45;;;;;;;35.47;5.57;;;9.40;99.90;;;;;;5055376;28;20102;-73
2022/10/04 02:36:28;;;;;;;22.38;5.70;;;9.20;99.90;;;;;;5055081;28;20033;-72
2022/10/04 02:39:12;;;;;;;52.05;5.75;;;9.10;99.90;;;;;;5037206;28;20025;-72
2022/10/04 02:41:49;;;;;;;33.40;5.40;;;9.00;99.90;;;;;;5038211;28;20020;-73
2022/10/04 02:44:23;;;;;;;40.75;5.63;;;8.90;99.90;;;;;;5037106;28;20021;-73
2022/10/04 02:47:04;;;;;;;19.77;4.65;;;8.90;99.90;;;;;;5036932;28;20029;-73
2022/10/04 02:49:34;;;;;;;15.25;4.95;;;8.90;99.90;;;;;;5055202;28;20063;-73
2022/10/04 02:52:05;;;;;;;24.95;5.00;;;8.80;99.90;;;;;;5037247;28;20029;-73
2022/10/04 02:54:41;;;;;;;19.13;5.45;;;8.90;99.90;;;;;;5054740;28;20025;-73
2022/10/04 02:57:19;;;;;;;21.77;4.53;;;8.80;99.90;;;;;;5036748;28;20033;-72
2022/10/04 02:59:45;;;;;;;6.53;3.92;;;8.80;99.90;;;;;;5037097;28;20043;-72
2022/10/04 03:02:30;;;;;;;7.38;4.60;;;8.90;99.90;;;;;;5037536;28;20025;-72
2022/10/04 03:04:59;;;;;;;13.43;4.72;;;9.00;99.90;;;;;;5037019;28;20029;-73
2022/10/04 03:07:25;;;;;;;7.05;4.10;;;9.10;99.90;;;;;;5036560;28;20362;-73
2022/10/04 03:09:52;;;;;;;10.15;5.03;;;9.30;99.90;;;;;;5036861;28;20075;-73
2022/10/04 03:12:21;;;;;;;20.02;5.00;;;9.40;99.90;;;;;;5054709;28;20025;-73
2022/10/04 03:14:46;;;;;;;11.75;5.03;;;9.50;99.90;;;;;;5054960;28;20021;-73
2022/10/04 03:17:14;;;;;;;28.27;5.75;;;9.40;99.90;;;;;;5054210;28;20021;-73
2022/10/04 03:19:40;;;;;;;15.13;4.82;;;9.30;99.90;;;;;;5054790;28;20053;-73
2022/10/04 03:22:08;;;;;;;11.60;4.90;;;9.40;99.90;;;;;;5054114;28;20123;-73
2022/10/04 03:24:42;;;;;;;25.15;5.57;;;9.40;99.90;;;;;;5037137;28;20078;-73
2022/10/04 03:27:13;;;;;;;35.00;6.00;;;9.40;99.90;;;;;;5054083;28;20037;-73
2022/10/04 03:29:42;;;;;;;33.40;5.63;;;9.30;99.90;;;;;;5037199;28;20091;-73
2022/10/04 03:32:12;;;;;;;16.05;6.00;;;9.30;99.90;;;;;;5054064;28;20017;-73
2022/10/04 03:34:40;;;;;;;22.88;5.85;;;9.30;99.90;;;;;;5037116;28;20051;-73
2022/10/04 03:37:10;;;;;;;20.15;5.43;;;9.30;99.90;;;;;;5035754;28;20029;-73
2022/10/04 03:39:45;;;;;;;14.90;5.20;;;9.20;99.90;;;;;;5036551;28;20028;-73
2022/10/04 03:42:18;;;;;;;16.52;5.38;;;9.20;99.90;;;;;;5053821;28;20100;-73
2022/10/04 03:44:45;;;;;;;42.05;6.32;;;9.30;99.90;;;;;;5036755;28;20341;-73
2022/10/04 03:47:14;;;;;;;14.80;6.03;;;9.10;99.90;;;;;;5036071;28;20074;-73
2022/10/04 03:49:42;;;;;;;32.97;6.97;;;9.10;99.90;;;;;;5053721;28;20013;-73
2022/10/04 03:52:25;;;;;;;18.90;5.68;;;9.10;99.90;;;;;;5036093;28;20056;-73
2022/10/04 03:54:54;;;;;;;27.90;5.93;;;9.00;99.90;;;;;;5036645;28;20060;-73
2022/10/04 03:57:20;;;;;;;12.85;5.85;;;9.10;99.90;;;;;;5035904;28;20029;-73
2022/10/04 03:59:46;;;;;;;27.55;6.30;;;9.10;99.90;;;;;;5035740;28;20116;-73
2022/10/04 04:02:32;;;;;;;33.35;7.10;;;9.10;99.90;;;;;;5035557;28;20047;-73
2022/10/04 04:05:23;;;;;;;39.75;7.25;;;9.00;99.90;;;;;;5053491;28;20021;-73
2022/10/04 04:08:11;;;;;;;30.25;6.57;;;9.00;99.90;;;;;;5036020;28;20029;-73
2022/10/04 04:10:42;;;;;;;15.43;6.03;;;8.90;99.90;;;;;;5053458;28;20083;-73
2022/10/04 04:13:10;;;;;;;20.08;6.00;;;9.10;99.90;;;;;;5053325;28;20115;-73
2022/10/04 04:15:37;;;;;;;24.70;6.07;;;9.10;99.90;;;;;;5053569;28;20032;-73
2022/10/04 04:18:06;;;;;;;22.20;6.30;;;9.20;99.90;;;;;;5053212;28;20025;-72
2022/10/04 04:20:35;;;;;;;20.70;5.88;;;9.10;99.90;;;;;;5036185;28;20029;-72
2022/10/04 04:23:22;;;;;;;15.95;5.78;;;9.10;99.90;;;;;;5035335;28;20021;-72
2022/10/04 04:25:53;;;;;;;32.30;6.65;;;9.10;99.90;;;;;;5035949;28;20021;-73
2022/10/04 04:28:53;;;;;;;25.15;6.00;;;9.00;99.90;;;;;;5053566;28;20029;-73
2022/10/04 04:31:32;;;;;;;18.50;5.70;;;9.00;99.90;;;;;;4937530;29;20150;-73
2022/10/04 04:34:01;;;;;;;15.18;5.90;;;8.90;99.90;;;;;;4953238;29;20098;-73
2022/10/04 04:36:29;;;;;;;9.80;5.75;;;9.00;99.90;;;;;;4953091;29;20042;-73
2022/10/04 04:41:52;;;;;;;9.63;5.85;;;9.00;99.90;;;;;;4953315;29;20067;-73
2022/10/04 04:44:19;;;;;;;11.25;5.68;;;9.00;99.90;;;;;;4937293;29;20035;-73
2022/10/04 04:46:46;;;;;;;10.30;5.13;;;9.00;99.90;;;;;;4937022;29;20039;-73
2022/10/04 04:49:14;;;;;;;26.98;6.90;;;9.00;99.90;;;;;;4939292;29;20030;-73
2022/10/04 04:51:45;;;;;;;19.08;5.97;;;8.90;99.90;;;;;;4957000;29;20028;-73
2022/10/04 04:54:11;;;;;;;17.67;6.18;;;8.90;99.90;;;;;;4957110;29;20114;-73
2022/10/04 04:56:40;;;;;;;17.77;6.80;;;8.90;99.90;;;;;;4956709;29;20107;-73
2022/10/04 04:59:06;;;;;;;21.60;6.03;;;8.90;99.90;;;;;;4956950;29;20024;-73
2022/10/04 05:01:40;;;;;;;29.90;6.65;;;8.80;99.90;;;;;;4940799;29;20058;-73
2022/10/04 05:04:10;;;;;;;26.98;6.68;;;8.90;99.90;;;;;;4956812;29;20027;-73
2022/10/04 05:06:38;;;;;;;21.83;5.32;;;8.90;99.90;;;;;;4994575;28;20032;-73
2022/10/04 05:09:04;;;;;;;16.73;6.18;;;8.90;99.90;;;;;;5039185;28;20021;-73
2022/10/04 05:11:33;;;;;;;12.38;5.63;;;8.90;99.90;;;;;;5056708;28;20048;-73
2022/10/04 05:14:08;;;;;;;16.75;6.65;;;9.00;99.90;;;;;;5039614;28;20036;-73
2022/10/04 05:16:48;;;;;;;14.38;5.72;;;8.90;99.90;;;;;;5056846;28;20111;-73
2022/10/04 05:19:20;;;;;;;16.83;5.97;;;8.90;99.90;;;;;;5038683;28;20024;-73
2022/10/04 05:21:47;;;;;;;14.52;6.25;;;8.90;99.90;;;;;;5038854;28;20021;-73
2022/10/04 05:24:24;;;;;;;41.08;6.38;;;9.00;99.90;;;;;;5038595;28;20048;-73
2022/10/04 05:26:53;;;;;;;26.65;6.95;;;9.00;99.90;;;;;;5038637;28;20491;-73
2022/10/04 05:29:23;;;;;;;18.23;6.88;;;9.00;99.90;;;;;;5056451;28;20025;-73
2022/10/04 05:32:12;;;;;;;16.92;6.75;;;9.10;99.90;;;;;;5038508;28;20056;-73
2022/10/04 05:34:40;;;;;;;27.48;6.78;;;9.10;99.90;;;;;;5038413;28;20075;-73
2022/10/04 05:37:44;;;;;;;29.98;6.80;;;9.00;99.90;;;;;;5038597;28;20094;-72
2022/10/04 05:40:12;;;;;;;15.63;7.63;;;9.00;99.90;;;;;;5056321;28;20043;-73
2022/10/04 05:42:45;;;;;;;23.55;7.22;;;9.00;99.90;;;;;;5038214;28;20033;-73
2022/10/04 05:45:30;;;;;;;17.60;6.38;;;9.00;99.90;;;;;;5038133;28;20124;-73
2022/10/04 05:47:59;;;;;;;22.30;6.65;;;9.10;99.90;;;;;;5038008;28;20031;-73
2022/10/04 05:50:39;;;;;;;20.52;6.53;;;9.10;99.90;;;;;;5038092;28;20013;-73
2022/10/04 05:53:31;;;;;;;22.73;6.07;;;9.20;99.90;;;;;;5038062;28;20477;-73
2022/10/04 05:56:15;;;;;;;30.30;6.85;;;9.10;99.90;;;;;;5056175;28;20021;-73
2022/10/04 05:59:19;;;;;;;18.02;6.47;;;9.10;99.90;;;;;;5037521;28;20064;-73
2022/10/04 06:02:07;;;;;;;27.83;6.63;;;9.10;99.90;;;;;;5038679;28;20056;-73
2022/10/04 06:05:01;;;;;;;15.77;7.05;;;9.00;99.90;;;;;;5038453;28;20056;-74
2022/10/04 06:07:36;;;;;;;24.48;7.35;;;9.00;99.90;;;;;;5039996;28;20481;-74
2022/10/04 06:10:31;;;;;;;14.10;6.00;;;9.10;99.90;;;;;;5057081;28;20017;-74
2022/10/04 06:13:16;;;;;;;20.15;6.10;;;9.20;99.90;;;;;;5038752;28;20017;-73
2022/10/04 06:15:58;;;;;;;20.60;7.78;;;9.30;99.90;;;;;;5039148;28;20021;-74
2022/10/04 06:18:43;;;;;;;38.75;7.20;;;9.30;99.90;;;;;;5057160;28;20029;-71
2022/10/04 06:21:24;;;;;;;35.17;7.55;;;9.30;99.90;;;;;;5055443;28;20021;-71
2022/10/04 06:23:55;;;;;;;21.48;6.45;;;9.30;99.90;;;;;;5055490;28;20071;-71
2022/10/04 06:26:25;;;;;;;22.67;6.63;;;9.50;99.90;;;;;;5037367;28;20029;-71
2022/10/04 06:28:57;;;;;;;17.73;6.13;;;9.60;99.90;;;;;;5057980;28;20267;-73
2022/10/04 06:31:45;;;;;;;12.93;5.70;;;9.70;99.90;;;;;;5038371;28;20028;-71
2022/10/04 06:34:19;;;;;;;10.75;5.55;;;9.80;99.90;;;;;;5055225;28;20025;-72
2022/10/04 06:37:08;;;;;;;11.88;5.18;;;9.90;99.90;;;;;;5037271;28;20036;-73
2022/10/04 06:40:25;;;;;;;18.75;5.82;;;9.90;99.90;;;;;;5055393;28;20021;-72
2022/10/04 06:42:56;;;;;;;16.60;5.45;;;9.90;99.90;;;;;;5055097;28;20039;-73
2022/10/04 06:45:46;;;;;;;11.23;5.35;;;9.90;99.90;;;;;;5037176;28;20025;-73
2022/10/04 06:48:55;;;;;;;12.85;5.20;;;9.90;99.90;;;;;;5054959;28;20024;-73
2022/10/04 06:51:52;;;;;;;16.35;6.00;;;9.90;99.90;;;;;;5036897;28;20078;-74
2022/10/04 06:54:37;;;;;;;13.27;5.65;;;9.80;99.90;;;;;;5054797;28;20033;-73
2022/10/04 06:57:30;;;;;;;14.35;6.35;;;9.70;99.90;;;;;;5036939;28;20025;-73
2022/10/04 07:00:01;;;;;;;9.40;5.53;;;9.60;99.90;;;;;;5036903;28;20055;-73
2022/10/04 07:02:35;;;;;;;13.93;6.40;;;9.50;99.90;;;;;;5037821;28;20029;-73
2022/10/04 07:05:29;;;;;;;13.50;6.25;;;9.70;99.90;;;;;;5037212;28;20025;-73
2022/10/04 07:08:05;;;;;;;17.05;6.88;;;9.70;99.90;;;;;;5036970;28;20029;-73
2022/10/04 07:10:50;;;;;;;16.90;7.15;;;9.70;99.90;;;;;;5053845;28;20021;-73
2022/10/04 07:13:19;;;;;;;15.10;7.10;;;9.60;99.90;;;;;;5054401;28;20045;-73
2022/10/04 07:15:55;;;;;;;18.85;8.02;;;9.60;99.90;;;;;;5036534;28;20056;-73
2022/10/04 07:18:34;;;;;;;17.45;6.95;;;9.60;99.90;;;;;;5054375;28;20027;-73
2022/10/04 07:21:08;;;;;;;17.98;7.40;;;9.60;99.90;;;;;;5037306;28;20029;-73
2022/10/04 07:23:52;;;;;;;19.00;8.32;;;9.50;99.90;;;;;;5036792;28;20049;-73
2022/10/04 07:26:45;;;;;;;18.88;7.95;;;9.40;99.90;;;;;;5054554;28;20056;-72
2022/10/04 07:29:25;;;;;;;18.08;7.10;;;9.40;99.90;;;;;;5054520;28;20048;-71
2022/10/04 07:32:04;;;;;;;17.30;7.68;;;9.50;99.90;;;;;;5037106;28;20029;-71
2022/10/04 07:34:37;;;;;;;17.42;7.90;;;9.50;99.90;;;;;;5054013;28;20028;-71
2022/10/04 07:37:09;;;;;;;16.38;7.35;;;9.50;99.90;;;;;;5053933;28;20052;-71
2022/10/04 07:39:59;;;;;;;18.05;6.45;;;9.50;99.90;;;;;;5054035;28;20021;-71
2022/10/04 07:42:43;;;;;;;21.77;7.35;;;9.50;99.90;;;;;;5054067;28;20028;-71
2022/10/04 07:45:18;;;;;;;22.92;7.47;;;9.60;99.90;;;;;;5053889;28;20023;-71
2022/10/04 07:47:44;;;;;;;20.30;7.70;;;9.70;99.90;;;;;;5036378;28;20025;-71
2022/10/04 07:51:01;;;;;;;17.17;7.43;;;9.80;99.90;;;;;;5035863;28;20021;-71
2022/10/04 07:53:53;;;;;;;19.30;8.07;;;9.90;99.90;;;;;;5012483;28;20108;-71
2022/10/04 07:56:47;;;;;;;23.40;9.52;;;9.90;99.90;;;;;;5053675;28;20047;-72
2022/10/04 07:59:31;;;;;;;24.63;8.30;;;9.90;99.90;;;;;;5035808;28;20032;-71
2022/10/04 08:02:25;;;;;;;20.75;7.95;;;9.80;99.90;;;;;;5035689;28;20075;-71
2022/10/04 08:05:09;;;;;;;25.13;9.65;;;9.90;99.90;;;;;;5053884;28;20091;-71
2022/10/04 08:08:05;;;;;;;22.80;8.15;;;9.90;99.90;;;;;;5035444;28;20480;-72
2022/10/04 08:10:41;;;;;;;17.38;8.05;;;10.00;99.90;;;;;;5053721;28;20472;-71
2022/10/04 08:13:19;;;;;;;17.40;7.57;;;10.10;99.90;;;;;;5053834;28;20021;-71
2022/10/04 08:15:45;;;;;;;20.00;8.80;;;10.10;99.90;;;;;;5053749;28;20025;-71
2022/10/04 08:18:16;;;;;;;21.48;9.27;;;10.30;99.90;;;;;;5035490;28;20027;-71
2022/10/04 08:20:57;;;;;;;22.02;8.43;;;10.40;99.90;;;;;;5035427;28;20036;-71
2022/10/04 08:23:56;;;;;;;20.02;8.55;;;10.40;99.90;;;;;;5035217;28;20029;-71
2022/10/04 08:26:28;;;;;;;24.55;7.82;;;10.40;99.90;;;;;;4994718;28;20124;-71
2022/10/04 08:32:29;;;;;;;22.60;8.35;;;10.50;99.90;;;;;;5053808;28;20039;-72
2022/10/04 08:35:15;;;;;;;19.65;8.60;;;10.60;99.90;;;;;;5035307;28;20025;-72
2022/10/04 08:38:24;;;;;;;16.40;8.13;;;10.80;99.90;;;;;;5053086;28;20017;-72
2022/10/04 08:41:26;;;;;;;19.42;7.78;;;11.00;99.90;;;;;;5053704;28;20106;-72
2022/10/04 08:44:10;;;;;;;;;;;11.20;99.90;;;;;;5035664;28;20059;-72
2022/10/04 08:47:09;;;;;;;17.73;7.63;;;11.30;99.90;;;;;;5035508;28;19904;-72
2022/10/04 08:49:59;;;;;;;21.48;8.15;;;11.30;99.90;;;;;;5035293;28;20021;-72
2022/10/04 08:53:02;;;;;;;19.30;7.10;;;11.40;99.90;;;;;;5053739;28;20045;-71
2022/10/04 08:55:57;;;;;;;15.60;7.32;;;11.50;99.90;;;;;;5035173;28;20025;-71
2022/10/04 08:59:05;;;;;;;19.08;8.15;;;11.60;99.90;;;;;;5035078;28;20021;-71
2022/10/04 09:01:58;;;;;;;23.90;8.43;;;11.60;99.90;;;;;;5053187;28;20075;-71
2022/10/04 09:04:33;;;;;;;17.83;8.00;;;11.60;99.90;;;;;;5035081;28;20017;-71
2022/10/04 09:07:17;;;;;;;14.90;7.22;;;11.90;99.90;;;;;;5034927;28;20473;-72
2022/10/04 09:10:00;;;;;;;16.88;7.25;;;12.00;99.90;;;;;;5052824;28;20021;-72
2022/10/04 09:12:43;;;;;;;22.75;9.48;;;12.10;99.90;;;;;;5034959;28;20025;-72
2022/10/04 09:15:38;;;;;;;20.40;9.90;;;12.30;99.90;;;;;;5035814;28;20052;-72
2022/10/04 09:18:43;;;;;;;17.45;6.95;;;12.20;99.90;;;;;;5053342;28;20025;-71
2022/10/04 09:21:25;;;;;;;15.32;6.05;;;12.30;99.90;;;;;;4997690;28;20037;-71
2022/10/04 09:24:09;;;;;;;;;;;12.50;99.90;;;;;;5035415;28;20388;-71
2022/10/04 09:26:42;;;;;;;13.43;5.03;;;12.70;99.90;;;;;;5052704;28;19920;-71
2022/10/04 09:29:26;;;;;;;12.98;6.03;;;12.60;99.90;;;;;;5052754;28;20021;-71
2022/10/04 09:31:54;;;;;;;14.02;5.55;;;12.70;99.90;;;;;;5035193;28;20025;-71
2022/10/04 09:34:41;;;;;;;14.60;5.50;;;12.80;99.90;;;;;;5035749;28;20040;-71
2022/10/04 09:37:21;;;;;;;15.20;6.32;;;12.90;99.90;;;;;;5039263;28;20025;-72
2022/10/04 09:40:05;;;;;;;10.57;5.47;;;12.90;99.90;;;;;;5056600;28;20021;-71
2022/10/04 09:42:49;;;;;;;9.75;5.25;;;12.90;99.90;;;;;;5056200;28;20051;-71
2022/10/04 09:45:33;;;;;;;9.82;4.95;;;13.10;99.90;;;;;;5038204;28;20082;-72
2022/10/04 09:48:17;;;;;;;13.63;5.78;;;13.10;99.90;;;;;;5039100;28;20021;-72
2022/10/04 09:51:06;;;;;;;15.68;6.03;;;13.20;99.90;;;;;;5038825;28;20051;-72
2022/10/04 09:54:00;;;;;;;12.95;5.93;;;13.40;99.90;;;;;;5056213;28;20017;-72
2022/10/04 09:56:44;;;;;;;13.80;5.70;;;13.50;99.90;;;;;;5037993;28;20033;-72
2022/10/04 09:59:17;;;;;;;10.77;5.15;;;13.60;99.90;;;;;;5038326;28;20087;-71
2022/10/04 10:02:07;;;;;;;11.18;5.88;;;13.50;99.90;;;;;;5056029;28;20043;-71
2022/10/04 10:05:01;;;;;;;8.30;5.32;;;13.60;99.90;;;;;;5037973;28;20021;-71
2022/10/04 10:07:59;;;;;;;10.02;4.72;;;13.80;99.90;;;;;;5037913;28;20021;-72
2022/10/04 10:14:05;;;;;;;10.75;4.43;;;14.30;99.90;;;;;;5055948;28;20055;-72
2022/10/04 10:16:52;;;;;;;11.50;4.45;;;14.40;99.90;;;;;;5055784;28;20096;-72
2022/10/04 10:19:31;;;;;;;10.32;4.60;;;14.80;99.90;;;;;;5038489;28;20032;-72
2022/10/04 10:22:21;;;;;;;7.72;4.53;;;15.20;99.90;;;;;;5037573;28;20045;-72
2022/10/04 10:25:28;;;;;;;9.13;4.05;;;15.40;99.90;;;;;;5037595;28;20024;-72
2022/10/04 10:28:03;;;;;;;15.13;3.75;;;15.60;99.90;;;;;;5055342;28;20122;-72
2022/10/04 10:30:31;;;;;;;12.68;4.00;;;15.50;99.90;;;;;;5038148;28;20025;-72
2022/10/04 10:33:29;;;;;;;13.48;5.18;;;15.70;99.90;;;;;;5037382;28;20021;-72
2022/10/04 10:36:01;;;;;;;7.20;4.20;;;15.60;99.90;;;;;;5055427;28;20370;-72
2022/10/04 10:38:41;;;;;;;9.70;4.10;;;15.30;99.90;;;;;;5055107;28;20021;-72
2022/10/04 10:41:30;;;;;;;7.28;3.30;;;15.30;99.90;;;;;;5055249;28;20068;-72
2022/10/04 10:44:25;;;;;;;5.78;2.90;;;15.30;99.90;;;;;;5038164;28;20112;-72
2022/10/04 10:47:20;;;;;;;13.43;3.97;;;15.40;99.90;;;;;;5055263;28;20017;-72
2022/10/04 10:50:04;;;;;;;10.93;3.63;;;15.60;99.90;;;;;;5055023;28;20021;-72
2022/10/04 10:52:53;;;;;;;4.13;2.83;;;15.80;99.90;;;;;;5055178;28;20025;-72
2022/10/04 10:55:27;;;;;;;6.03;2.83;;;15.90;99.90;;;;;;5054945;28;20025;-72
2022/10/04 10:58:10;;;;;;;9.68;2.85;;;16.10;99.90;;;;;;5036956;28;20033;-72
2022/10/04 11:01:00;;;;;;;5.53;2.20;;;16.50;99.90;;;;;;5038067;28;20021;-72
2022/10/04 11:03:38;;;;;;;4.53;2.25;;;16.80;99.90;;;;;;5037569;28;20108;-70
2022/10/04 11:06:38;;;;;;;6.72;2.65;;;17.10;99.90;;;;;;5057486;28;20104;-73
2022/10/04 11:09:41;;;;;;;5.30;2.28;;;17.30;99.90;;;;;;5043359;28;20039;-74
2022/10/04 11:12:25;;;;;;;5.22;2.60;;;17.70;99.90;;;;;;5012836;28;20025;-74
2022/10/04 11:15:21;;;;;;;8.45;2.60;;;17.40;99.90;;;;;;5044063;28;20017;-74
2022/10/04 11:18:12;;;;;;;4.32;1.90;;;17.60;99.90;;;;;;5042231;28;20025;-73
2022/10/04 11:21:24;;;;;;;6.35;2.72;;;17.40;99.90;;;;;;5037712;28;20056;-72
2022/10/04 11:24:13;;;;;;;5.97;2.38;;;17.90;99.90;;;;;;5054403;28;20100;-71
2022/10/04 11:26:58;;;;;;;4.85;2.25;;;18.40;99.90;;;;;;5036762;28;20079;-71
2022/10/04 11:29:30;;;;;;;10.00;2.28;;;18.60;99.90;;;;;;5038773;28;20025;-74
2022/10/04 11:31:59;;;;;;;4.53;2.10;;;18.50;99.90;;;;;;5060206;28;20163;-73
2022/10/04 11:35:15;;;;;;;3.55;2.15;;;19.00;99.90;;;;;;5041138;28;20480;-74
2022/10/04 11:37:52;;;;;;;7.25;2.47;;;19.20;99.90;;;;;;5021980;28;20029;-72
2022/10/04 11:41:02;;;;;;;5.32;2.35;;;19.40;99.90;;;;;;5036806;28;20468;-72
2022/10/04 11:44:07;;;;;;;5.83;2.23;;;19.50;99.90;;;;;;4954082;29;20067;-72
2022/10/04 11:46:42;;;;;;;5.25;2.10;;;19.00;99.90;;;;;;4953680;29;20403;-72
2022/10/04 11:49:35;;;;;;;3.30;1.80;;;18.70;99.90;;;;;;4953886;29;20027;-72
2022/10/04 11:52:16;;;;;;;7.28;2.10;;;19.00;99.90;;;;;;4954417;29;20125;-72
2022/10/04 11:55:16;;;;;;;3.75;2.13;;;19.60;99.90;;;;;;4959709;29;20027;-74
2022/10/04 11:57:53;;;;;;;6.93;1.92;;;19.90;99.90;;;;;;4958408;28;20062;-74
2022/10/04 12:00:22;;;;;;;6.38;2.03;;;20.10;99.90;;;;;;4944287;29;20038;-74
2022/10/04 12:03:26;;;;;;;4.47;2.25;;;20.00;99.90;;;;;;4944371;29;20027;-74
2022/10/04 12:06:06;;;;;;;7.32;2.00;;;20.00;99.90;;;;;;4942466;29;20031;-74
2022/10/04 12:08:41;;;;;;;7.47;2.20;;;20.30;99.90;;;;;;4959773;29;20090;-74
2022/10/04 12:12:35;;;;;;;6.18;2.35;;;20.70;99.90;;;;;;4960813;29;20131;-74
2022/10/04 12:14:46;;;;;;;5.90;2.30;;;20.90;99.90;;;;;;4953432;29;20136;-72
2022/10/04 12:17:37;;;;;;;3.60;2.00;;;21.30;99.90;;;;;;4993795;28;20063;-71
2022/10/04 12:20:42;;;;;;;5.97;1.92;;;21.30;99.90;;;;;;5053673;28;20017;-71
2022/10/04 12:23:19;;;;;;;7.32;1.80;;;21.60;99.90;;;;;;5035437;28;20075;-71
2022/10/04 12:25:57;;;;;;;5.90;1.98;;;20.90;99.90;;;;;;5053659;28;20078;-71
2022/10/04 12:29:00;;;;;;;5.80;1.73;;;20.30;99.90;;;;;;5038007;28;20033;-73
2022/10/04 12:31:39;;;;;;;8.25;2.15;;;20.10;99.90;;;;;;5041135;28;20021;-74
2022/10/04 12:34:37;;;;;;;4.78;2.03;;;20.50;99.90;;;;;;5060097;28;20020;-73
2022/10/04 12:37:37;;;;;;;3.70;1.83;;;20.30;99.90;;;;;;5035913;28;20043;-73
2022/10/04 12:40:06;;;;;;;6.20;2.30;;;19.80;99.90;;;;;;5042063;28;20032;-73
2022/10/04 12:42:46;;;;;;;7.75;2.05;;;20.10;99.90;;;;;;5041926;28;20067;-73
2022/10/04 12:45:40;;;;;;;3.63;2.28;;;20.40;99.90;;;;;;5059643;28;20465;-74
2022/10/04 12:48:21;;;;;;;4.07;1.90;;;20.20;99.90;;;;;;5041918;28;20054;-74
2022/10/04 12:51:04;;;;;;;;;;;20.90;99.90;;;;;;5041276;28;20017;-74
2022/10/04 12:54:00;;;;;;;5.95;2.45;;;21.90;99.90;;;;;;5039813;28;19951;-74
2022/10/04 12:57:06;;;;;;;7.57;1.90;;;22.40;99.90;;;;;;5041657;28;20025;-73
2022/10/04 12:59:59;;;;;;;3.25;1.70;;;22.10;99.90;;;;;;5036050;28;20041;-72
2022/10/04 13:03:09;;;;;;;10.15;2.10;;;22.60;99.90;;;;;;5035215;28;20042;-72
2022/10/04 13:05:47;;;;;;;5.38;2.33;;;23.50;99.90;;;;;;5053895;28;20020;-74
2022/10/04 13:08:12;;;;;;;4.05;2.53;;;24.00;99.90;;;;;;5056381;28;20021;-75
2022/10/04 13:11:03;;;;;;;3.85;2.15;;;23.90;99.90;;;;;;5060832;28;20499;-74
2022/10/04 13:14:02;;;;;;;5.78;2.40;;;23.00;99.90;;;;;;5043946;28;20029;-74
2022/10/04 13:16:47;;;;;;;5.75;2.70;;;22.50;99.90;;;;;;5044700;28;20032;-73
2022/10/04 13:19:22;;;;;;;8.27;2.00;;;21.50;99.90;;;;;;5043907;28;20027;-73
2022/10/04 13:22:09;;;;;;;7.28;2.38;;;21.60;99.90;;;;;;5044033;28;20055;-74
2022/10/04 13:24:56;;;;;;;2.60;1.73;;;22.00;99.90;;;;;;5062328;28;20025;-74
2022/10/04 13:27:47;;;;;;;5.63;2.00;;;21.80;99.90;;;;;;5059947;28;20045;-72
2022/10/04 13:30:26;;;;;;;4.32;2.33;;;21.90;99.90;;;;;;5038617;28;20036;-71
2022/10/04 13:33:25;;;;;;;5.57;2.63;;;23.50;99.90;;;;;;5056470;28;20032;-71
2022/10/04 13:36:28;;;;;;;3.22;1.85;;;24.70;99.90;;;;;;5038451;28;20025;-71
2022/10/04 13:39:21;;;;;;;7.10;1.98;;;25.30;99.90;;;;;;5038676;28;20078;-72
2022/10/04 13:42:25;;;;;;;9.82;2.63;;;24.90;99.90;;;;;;5038378;28;20025;-71
2022/10/04 13:45:18;;;;;;;4.10;2.20;;;23.70;99.90;;;;;;4940062;29;20052;-71
2022/10/04 13:47:53;;;;;;;7.10;2.83;;;23.40;99.90;;;;;;4939920;29;20427;-72
2022/10/04 13:50:41;;;;;;;4.30;2.15;;;23.50;99.90;;;;;;4940607;29;20035;-72
2022/10/04 13:56:36;;;;;;;3.13;1.88;;;23.90;99.90;;;;;;4956316;29;20038;-72
2022/10/04 13:59:39;;;;;;;4.97;2.42;;;24.40;99.90;;;;;;4955803;29;20019;-72
2022/10/04 14:02:43;;;;;;;5.15;2.30;;;25.50;97.80;;;;;;4940072;29;20102;-72
2022/10/04 14:05:40;;;;;;;6.78;2.70;;;25.60;97.90;;;;;;4956102;29;20035;-72
2022/10/04 14:08:32;;;;;;;5.65;2.30;;;26.40;95.80;;;;;;4929010;29;20062;-72
2022/10/04 14:11:15;;;;;;;3.97;2.47;;;26.80;94.70;;;;;;4955967;29;20035;-72
2022/10/04 14:14:02;;;;;;;5.38;2.70;;;26.20;94.30;;;;;;4940150;29;20039;-72
2022/10/04 14:16:54;;;;;;;3.40;2.47;;;26.30;95.10;;;;;;5023801;28;20090;-71